createdAt,value
2023-04-29T00:00:18.719Z,13.99
2023-04-29T00:03:40.494Z,13.93
2023-04-29T00:07:02.315Z,13.96
2023-04-29T00:10:23.989Z,13.81
2023-04-29T00:13:45.561Z,13.93
2023-04-29T00:17:07.313Z,14.05
2023-04-29T00:20:28.955Z,13.98
2023-04-29T00:23:51.121Z,13.89
2023-04-29T00:27:14.986Z,13.85
2023-04-29T00:30:37.357Z,13.83
2023-04-29T00:33:58.954Z,13.89
2023-04-29T00:37:22.796Z,13.76
2023-04-29T00:40:45.360Z,13.64
2023-04-29T00:44:10.031Z,13.65
2023-04-29T00:47:33.893Z,13.72
2023-04-29T00:50:57.729Z,13.74
2023-04-29T00:54:19.748Z,13.66
2023-04-29T00:57:42.684Z,13.66
2023-04-29T01:01:04.394Z,13.78
2023-04-29T01:04:26.300Z,13.74
2023-04-29T01:08:10.949Z,13.76
2023-04-29T01:11:50.394Z,13.64
2023-04-29T01:15:32.612Z,13.68
2023-04-29T01:19:28.750Z,13.58
2023-04-29T01:22:52.675Z,13.51
2023-04-29T01:26:14.813Z,13.53
2023-04-29T01:29:54.875Z,13.57
2023-04-29T01:33:27.028Z,13.59
2023-04-29T01:36:48.667Z,13.51
2023-04-29T01:40:20.005Z,13.43
2023-04-29T01:43:48.519Z,13.41
2023-04-29T01:47:13.624Z,13.51
2023-04-29T01:50:35.414Z,13.57
2023-04-29T01:53:57.434Z,13.53
2023-04-29T01:57:19.474Z,13.55
2023-04-29T02:00:41.668Z,13.50
2023-04-29T02:04:04.069Z,13.51
2023-04-29T02:07:28.173Z,13.47
2023-04-29T02:10:57.717Z,13.43
2023-04-29T02:14:19.303Z,13.50
2023-04-29T02:17:41.207Z,13.48
2023-04-29T02:21:03.313Z,13.38
2023-04-29T02:24:27.047Z,13.45
2023-04-29T02:27:48.657Z,13.44
2023-04-29T02:31:10.220Z,13.38
2023-04-29T02:34:32.453Z,13.28
2023-04-29T02:37:57.485Z,13.26
2023-04-29T02:41:22.226Z,13.36
2023-04-29T02:44:43.953Z,13.23
2023-04-29T02:48:06.523Z,13.27
2023-04-29T02:51:30.886Z,13.34
2023-04-29T02:54:57.487Z,13.33
2023-04-29T02:58:19.103Z,13.30
2023-04-29T03:01:41.475Z,13.28
2023-04-29T03:05:04.621Z,13.21
2023-04-29T03:08:26.318Z,13.21
2023-04-29T03:11:47.871Z,13.34
2023-04-29T03:15:15.614Z,13.31
2023-04-29T03:18:39.395Z,13.30
2023-04-29T03:22:01.001Z,13.38
2023-04-29T03:25:23.023Z,13.33
2023-04-29T03:28:47.878Z,13.23
2023-04-29T03:32:12.260Z,13.21
2023-04-29T03:35:34.321Z,13.24
2023-04-29T03:38:55.880Z,13.18
2023-04-29T03:42:17.479Z,12.97
2023-04-29T03:45:39.216Z,12.73
2023-04-29T03:49:00.909Z,12.69
2023-04-29T03:52:22.485Z,12.82
2023-04-29T03:55:44.077Z,12.89
2023-04-29T03:59:05.743Z,12.80
2023-04-29T04:02:27.971Z,12.82
2023-04-29T04:05:49.685Z,12.79
2023-04-29T04:09:11.300Z,12.75
2023-04-29T04:12:32.878Z,12.70
2023-04-29T04:15:54.544Z,12.69
2023-04-29T04:19:19.399Z,12.76
2023-04-29T04:22:43.209Z,12.79
2023-04-29T04:26:04.989Z,12.90
2023-04-29T04:29:26.599Z,13.03
2023-04-29T04:32:48.159Z,13.18
2023-04-29T04:36:10.203Z,13.23
2023-04-29T04:39:31.826Z,13.07
2023-04-29T04:42:55.176Z,12.97
2023-04-29T04:46:19.240Z,13.03
2023-04-29T04:49:44.112Z,13.00
2023-04-29T04:53:10.594Z,12.96
2023-04-29T04:56:32.212Z,13.00
2023-04-29T04:59:53.957Z,12.90
2023-04-29T05:03:18.184Z,12.93
2023-04-29T05:06:39.847Z,12.88
2023-04-29T05:10:02.429Z,12.80
2023-04-29T05:13:25.520Z,12.75
2023-04-29T05:16:47.187Z,12.72
2023-04-29T05:20:09.422Z,12.73
2023-04-29T05:23:31.242Z,12.88
2023-04-29T05:26:54.160Z,12.79
2023-04-29T05:30:16.266Z,12.80
2023-04-29T05:33:37.929Z,12.69
2023-04-29T05:36:59.554Z,12.61
2023-04-29T05:40:23.261Z,12.70
2023-04-29T05:43:47.969Z,12.83
2023-04-29T05:47:09.560Z,12.88
2023-04-29T05:50:31.150Z,12.85
2023-04-29T05:53:59.531Z,12.90
2023-04-29T05:57:21.217Z,13.04
2023-04-29T06:00:45.402Z,13.09
2023-04-29T06:04:09.349Z,13.14
2023-04-29T06:07:33.347Z,13.20
2023-04-29T06:10:54.977Z,13.18
2023-04-29T06:14:16.622Z,13.21
2023-04-29T06:17:40.616Z,13.23
2023-04-29T06:21:02.284Z,13.10
2023-04-29T06:24:23.907Z,12.96
2023-04-29T06:27:45.478Z,13.02
2023-04-29T06:31:07.498Z,13.07
2023-04-29T06:34:33.593Z,13.13
2023-04-29T06:37:56.815Z,13.23
2023-04-29T06:41:20.464Z,13.17
2023-04-29T06:44:42.113Z,13.27
2023-04-29T06:48:04.079Z,13.37
2023-04-29T06:51:28.103Z,13.51
2023-04-29T06:54:52.042Z,13.45
2023-04-29T06:58:17.597Z,13.20
2023-04-29T07:01:42.520Z,13.24
2023-04-29T07:05:08.821Z,13.34
2023-04-29T07:08:33.293Z,13.54
2023-04-29T07:11:55.169Z,13.65
2023-04-29T07:15:16.789Z,13.78
2023-04-29T07:18:41.425Z,13.54
2023-04-29T07:22:05.324Z,13.50
2023-04-29T07:25:29.286Z,13.50
2023-04-29T07:28:50.873Z,13.50
2023-04-29T07:32:15.951Z,13.44
2023-04-29T07:35:44.542Z,13.54
